createdAt,value
2019-05-14T00:01:42.384Z,103343.12
2019-05-14T00:04:12.240Z,103341.84
2019-05-14T00:06:42.067Z,103339.56
2019-05-14T00:09:12.286Z,103338.52
2019-05-14T00:11:42.364Z,103339.02
2019-05-14T00:14:12.183Z,103337.58
2019-05-14T00:16:42.569Z,103337.00
2019-05-14T00:19:12.825Z,103332.20
2019-05-14T00:21:42.583Z,103338.53
2019-05-14T00:24:12.420Z,103334.33
2019-05-14T00:26:42.787Z,103319.34
2019-05-14T00:29:12.611Z,103320.55
2019-05-14T00:31:42.698Z,103316.83
2019-05-14T00:34:12.525Z,103325.35
2019-05-14T00:36:42.303Z,103329.63
2019-05-14T00:39:11.968Z,103332.50
2019-05-14T00:41:42.164Z,103333.16
2019-05-14T00:44:13.526Z,103330.34
2019-05-14T00:46:43.452Z,103333.08
2019-05-14T00:49:13.091Z,103328.44
2019-05-14T00:51:42.803Z,103337.28
2019-05-14T00:54:12.605Z,103341.13
2019-05-14T00:56:42.460Z,103345.83
2019-05-14T00:59:12.292Z,103339.58
2019-05-14T01:01:42.666Z,103347.95
2019-05-14T01:04:12.701Z,103343.97
2019-05-14T01:06:42.468Z,103339.66
2019-05-14T01:09:12.740Z,103341.87
2019-05-14T01:11:42.545Z,103342.59
2019-05-14T01:14:12.398Z,103342.30
2019-05-14T01:16:42.539Z,103335.73
2019-05-14T01:19:12.598Z,103338.13
2019-05-14T01:21:42.474Z,103333.92
2019-05-14T01:24:12.734Z,103330.35
2019-05-14T01:26:42.627Z,103327.31
2019-05-14T01:29:12.451Z,103324.55
2019-05-14T01:31:42.212Z,103329.16
2019-05-14T01:34:11.917Z,103329.17
2019-05-14T01:36:41.662Z,103324.47
2019-05-14T01:39:12.246Z,103323.37
2019-05-14T01:41:42.504Z,103317.77
2019-05-14T01:44:12.457Z,103316.33
2019-05-14T01:46:42.247Z,103318.56
2019-05-14T01:49:12.279Z,103309.48
2019-05-14T01:51:42.829Z,103301.55
2019-05-14T01:54:12.694Z,103297.36
2019-05-14T01:56:42.614Z,103293.38
2019-05-14T01:59:13.209Z,103288.76
2019-05-14T02:01:44.476Z,103291.73
2019-05-14T02:04:14.281Z,103290.73
2019-05-14T02:06:44.070Z,103286.84
2019-05-14T02:09:13.774Z,103283.99
2019-05-14T02:11:43.491Z,103280.11
2019-05-14T02:14:13.396Z,103284.92
2019-05-14T02:16:43.041Z,103288.08
2019-05-14T02:19:12.828Z,103283.58
2019-05-14T02:21:42.709Z,103283.19
2019-05-14T02:24:12.481Z,103284.20
2019-05-14T02:26:42.641Z,103280.73
2019-05-14T02:29:12.678Z,103286.27
2019-05-14T02:31:42.509Z,103284.20
2019-05-14T02:34:12.201Z,103285.13
2019-05-14T02:36:41.918Z,103285.95
2019-05-14T02:39:11.816Z,103291.75
2019-05-14T02:41:41.799Z,103287.90
2019-05-14T02:44:11.565Z,103290.75
2019-05-14T02:46:41.203Z,103284.00
2019-05-14T02:49:11.075Z,103281.77
2019-05-14T02:51:40.802Z,103280.85
2019-05-14T02:54:10.515Z,103282.65
2019-05-14T02:56:40.627Z,103278.96
2019-05-14T02:59:10.512Z,103278.34
2019-05-14T03:01:40.909Z,103277.84
2019-05-14T03:04:11.057Z,103277.41
2019-05-14T03:06:40.903Z,103284.46
2019-05-14T03:09:10.879Z,103286.28
2019-05-14T03:11:41.367Z,103277.91
2019-05-14T03:14:11.293Z,103287.47
2019-05-14T03:16:41.298Z,103293.80
2019-05-14T03:19:11.179Z,103293.89
2019-05-14T03:21:41.018Z,103294.94
2019-05-14T03:24:10.842Z,103302.06
2019-05-14T03:26:40.770Z,103295.23
2019-05-14T03:29:10.780Z,103293.48
2019-05-14T03:31:42.462Z,103292.22
2019-05-14T03:34:13.782Z,103295.09
2019-05-14T03:36:44.344Z,103296.58
2019-05-14T03:39:14.106Z,103299.70
2019-05-14T03:41:43.992Z,103286.67
2019-05-14T03:44:13.805Z,103282.14
2019-05-14T03:46:51.340Z,103277.09
2019-05-14T03:49:15.175Z,103279.12
2019-05-14T03:51:44.974Z,103275.34
2019-05-14T03:54:14.784Z,103278.97
2019-05-14T03:56:44.654Z,103284.16
2019-05-14T03:59:14.671Z,103286.16
2019-05-14T04:01:45.108Z,103287.86
2019-05-14T04:04:15.364Z,103284.73
2019-05-14T04:06:49.734Z,103282.78
2019-05-14T04:09:21.387Z,103286.95
2019-05-14T04:11:55.718Z,103280.27
2019-05-14T04:14:29.527Z,103281.23
2019-05-14T04:17:09.583Z,103278.34
2019-05-14T04:19:39.496Z,103281.39
2019-05-14T04:22:15.392Z,103286.59
2019-05-14T04:24:50.058Z,103285.29
2019-05-14T04:27:22.245Z,103284.61
2019-05-14T04:29:55.185Z,103283.91
2019-05-14T04:32:29.196Z,103275.08
2019-05-14T04:34:59.669Z,103272.02
2019-05-14T04:37:29.867Z,103274.67
2019-05-14T04:39:59.701Z,103275.59
2019-05-14T04:42:29.755Z,103279.49
2019-05-14T04:45:05.283Z,103267.55
2019-05-14T04:47:36.986Z,103270.99
2019-05-14T04:50:03.324Z,103270.84
2019-05-14T04:52:33.069Z,103267.66
2019-05-14T04:55:02.998Z,103264.22
2019-05-14T04:57:32.958Z,103263.80
2019-05-14T05:00:02.853Z,103268.08
2019-05-14T05:02:32.625Z,103269.53
2019-05-14T05:05:02.342Z,103267.02
2019-05-14T05:07:32.111Z,103269.26
2019-05-14T05:10:01.825Z,103260.87
2019-05-14T05:12:31.753Z,103262.42
2019-05-14T05:15:01.585Z,103263.04
2019-05-14T05:17:46.761Z,103270.30
2019-05-14T05:20:02.915Z,103275.07
2019-05-14T05:22:32.707Z,103278.67
2019-05-14T05:25:02.539Z,103273.19
2019-05-14T05:27:32.401Z,103266.23
2019-05-14T05:30:02.072Z,103267.02
2019-05-14T05:32:31.866Z,103259.30
2019-05-14T05:35:01.937Z,103257.34
2019-05-14T05:37:31.617Z,103263.86
2019-05-14T05:40:01.346Z,103256.73
2019-05-14T05:42:31.072Z,103253.89
2019-05-14T05:45:00.852Z,103258.01
2019-05-14T05:47:30.559Z,103249.03
2019-05-14T05:50:00.256Z,103244.48
2019-05-14T05:52:30.165Z,103245.28
2019-05-14T05:54:59.924Z,103240.84
2019-05-14T05:57:29.637Z,103246.16
2019-05-14T05:59:59.285Z,103242.16
2019-05-14T06:02:29.267Z,103240.52
2019-05-14T06:04:59.070Z,103239.16
2019-05-14T06:07:29.009Z,103230.86
2019-05-14T06:09:59.034Z,103237.11
2019-05-14T06:12:29.608Z,103231.76
2019-05-14T06:14:59.906Z,103231.47
2019-05-14T06:17:29.619Z,103230.36
2019-05-14T06:19:59.343Z,103231.59
2019-05-14T06:22:29.119Z,103226.39
2019-05-14T06:24:58.888Z,103219.52
2019-05-14T06:27:28.909Z,103217.25
2019-05-14T06:29:58.858Z,103218.62
2019-05-14T06:32:29.118Z,103218.64
2019-05-14T06:34:59.465Z,103213.70
2019-05-14T06:37:30.134Z,103219.34
2019-05-14T06:40:00.086Z,103217.95
2019-05-14T06:42:29.841Z,103219.89
2019-05-14T06:44:59.661Z,103207.81
2019-05-14T06:47:29.413Z,103216.20
2019-05-14T06:49:59.372Z,103210.66
2019-05-14T06:52:29.358Z,103210.23
2019-05-14T06:54:59.133Z,103211.88
2019-05-14T06:57:28.929Z,103206.20
2019-05-14T06:59:58.998Z,103207.38
2019-05-14T07:02:28.853Z,103205.86
2019-05-14T07:04:59.090Z,103209.73
2019-05-14T07:07:30.146Z,103204.06
2019-05-14T07:10:00.021Z,103203.34
2019-05-14T07:12:29.704Z,103209.14
2019-05-14T07:14:59.406Z,103205.84
2019-05-14T07:17:29.244Z,103204.31
2019-05-14T07:19:58.909Z,103204.98
2019-05-14T07:22:28.588Z,103206.58
2019-05-14T07:24:58.808Z,103204.53
2019-05-14T07:27:28.619Z,103203.34
2019-05-14T07:29:58.446Z,103201.24
2019-05-14T07:32:28.879Z,103204.52
2019-05-14T07:34:59.622Z,103204.08
2019-05-14T07:37:29.656Z,103200.19
2019-05-14T07:39:59.448Z,103200.89
2019-05-14T07:42:29.871Z,103199.55
2019-05-14T07:44:59.584Z,103201.36
2019-05-14T07:47:29.464Z,103199.69
2019-05-14T07:49:59.193Z,103186.95
2019-05-14T07:52:29.124Z,103182.75
2019-05-14T07:54:58.846Z,103185.08
2019-05-14T07:57:28.677Z,103177.98
2019-05-14T07:59:58.903Z,103179.02
2019-05-14T08:02:29.145Z,103184.03
2019-05-14T08:04:58.993Z,103183.95
2019-05-14T08:07:28.754Z,103189.27
2019-05-14T08:09:58.547Z,103188.99
2019-05-14T08:12:28.606Z,103183.48
2019-05-14T08:15:14.254Z,103185.56
2019-05-14T08:17:30.098Z,103185.33
2019-05-14T08:19:59.818Z,103181.16
2019-05-14T08:22:29.658Z,103182.86
2019-05-14T08:24:59.443Z,103184.11
2019-05-14T08:27:31.057Z,103175.28
2019-05-14T08:30:00.664Z,103178.38
2019-05-14T08:32:30.484Z,103176.91
2019-05-14T08:35:00.151Z,103182.66
2019-05-14T08:37:29.998Z,103189.63
2019-05-14T08:39:59.777Z,103175.77
2019-05-14T08:42:34.049Z,103177.72
2019-05-14T08:45:04.916Z,103181.69
2019-05-14T08:47:32.855Z,103182.47
2019-05-14T08:50:02.698Z,103191.10
2019-05-14T08:52:32.618Z,103190.69
2019-05-14T08:55:10.069Z,103173.13
2019-05-14T08:57:33.801Z,103165.70
2019-05-14T09:00:04.356Z,103170.48
2019-05-14T09:02:34.125Z,103161.25
2019-05-14T09:05:05.079Z,103150.38
2019-05-14T09:07:35.029Z,103147.25
2019-05-14T09:10:08.703Z,103139.98
2019-05-14T09:12:38.989Z,103129.34
2019-05-14T09:15:10.408Z,103118.22
2019-05-14T09:17:40.141Z,103121.41
2019-05-14T09:20:11.668Z,103121.72
2019-05-14T09:22:41.647Z,103116.14
2019-05-14T09:25:11.652Z,103109.42
2019-05-14T09:27:41.388Z,103112.22
2019-05-14T09:30:12.269Z,103099.62
2019-05-14T09:32:42.478Z,103091.50
2019-05-14T09:35:12.561Z,103107.00
2019-05-14T09:37:42.355Z,103114.17
2019-05-14T09:40:12.555Z,103107.41
2019-05-14T09:42:42.200Z,103099.09
2019-05-14T09:45:12.501Z,103101.19
2019-05-14T09:47:42.235Z,103100.58
2019-05-14T09:50:20.181Z,103098.20
2019-05-14T09:52:44.206Z,103095.70
2019-05-14T09:55:14.583Z,103099.36
2019-05-14T09:57:44.349Z,103090.31
2019-05-14T10:00:15.433Z,103094.85
2019-05-14T10:02:45.314Z,103089.31
2019-05-14T10:05:15.254Z,103084.17
2019-05-14T10:07:45.040Z,103090.24
2019-05-14T10:10:15.039Z,103088.39
2019-05-14T10:12:54.114Z,103089.05
2019-05-14T10:15:17.499Z,103085.03
2019-05-14T10:17:50.033Z,103098.77
2019-05-14T10:20:35.633Z,103097.89
2019-05-14T10:22:50.273Z,103096.90
2019-05-14T10:25:21.732Z,103099.45
2019-05-14T10:27:51.512Z,103090.94
2019-05-14T10:30:22.293Z,103094.13
2019-05-14T10:32:52.388Z,103094.33
2019-05-14T10:35:22.123Z,103091.28
2019-05-14T10:37:54.394Z,103081.42
2019-05-14T10:40:23.815Z,103067.70
2019-05-14T10:42:53.515Z,103073.09
2019-05-14T10:45:23.548Z,103063.80
2019-05-14T10:47:53.197Z,103050.76
2019-05-14T10:50:23.153Z,103051.67
2019-05-14T10:52:52.817Z,103041.80
2019-05-14T10:55:22.662Z,103029.56
2019-05-14T10:57:54.398Z,103038.77
2019-05-14T11:00:24.279Z,103031.34
2019-05-14T11:02:53.997Z,103033.11
2019-05-14T11:05:23.726Z,103028.22
2019-05-14T11:07:53.440Z,103036.36
2019-05-14T11:10:23.356Z,103030.48
2019-05-14T11:12:55.050Z,103029.58
2019-05-14T11:15:25.045Z,103035.23
2019-05-14T11:17:54.720Z,103031.28
2019-05-14T11:20:24.697Z,103028.28
2019-05-14T11:22:54.584Z,103022.91
2019-05-14T11:25:24.321Z,103024.92
2019-05-14T11:27:54.111Z,103022.50
2019-05-14T11:30:23.992Z,103014.03
2019-05-14T11:32:53.743Z,103007.76
2019-05-14T11:35:23.597Z,103016.02
2019-05-14T11:37:53.416Z,103006.75
2019-05-14T11:40:24.990Z,103007.06
2019-05-14T11:42:54.816Z,102995.52
2019-05-14T11:45:27.029Z,102996.88
2019-05-14T11:47:58.368Z,102986.20
2019-05-14T11:50:28.876Z,102973.80
2019-05-14T11:52:58.886Z,102974.80
2019-05-14T11:55:28.516Z,102980.72
2019-05-14T11:57:58.452Z,102970.00
2019-05-14T12:00:29.437Z,102967.39
2019-05-14T12:02:59.399Z,102968.56
2019-05-14T12:05:30.429Z,102965.42
2019-05-14T12:08:00.313Z,102950.06
2019-05-14T12:10:30.100Z,102946.07
2019-05-14T12:12:59.982Z,102950.07
2019-05-14T12:15:29.805Z,102943.43
2019-05-14T12:17:59.839Z,102926.20
2019-05-14T12:20:30.065Z,102934.67
2019-05-14T12:22:59.778Z,102922.09
2019-05-14T12:25:29.599Z,102919.94
2019-05-14T12:27:59.418Z,102920.12
2019-05-14T12:30:29.370Z,102921.56
2019-05-14T12:32:59.213Z,102917.62
2019-05-14T12:35:29.441Z,102924.34
2019-05-14T12:37:59.311Z,102921.66
2019-05-14T12:40:29.147Z,102919.20
2019-05-14T12:42:59.472Z,102909.50
2019-05-14T12:45:30.130Z,102904.98
2019-05-14T12:48:00.026Z,102909.62
2019-05-14T12:50:29.825Z,102900.51
2019-05-14T12:52:59.675Z,102908.02
2019-05-14T12:55:29.416Z,102903.64
2019-05-14T12:57:59.755Z,102907.36
2019-05-14T13:00:29.776Z,102900.39
2019-05-14T13:02:59.654Z,102893.94
2019-05-14T13:05:29.608Z,102898.16
2019-05-14T13:07:59.283Z,102898.70
2019-05-14T13:10:29.841Z,102891.53
2019-05-14T13:12:59.648Z,102882.95
2019-05-14T13:15:29.600Z,102877.11
2019-05-14T13:17:59.275Z,102879.47
2019-05-14T13:20:29.222Z,102876.41
2019-05-14T13:22:59.389Z,102867.80
2019-05-14T13:25:30.323Z,102863.92
2019-05-14T13:28:00.341Z,102871.14
2019-05-14T13:30:30.231Z,102868.34
2019-05-14T13:32:59.953Z,102854.89
2019-05-14T13:35:29.603Z,102837.37
2019-05-14T13:37:59.363Z,102840.08
2019-05-14T13:40:29.184Z,102838.84
2019-05-14T13:42:58.887Z,102839.30
2019-05-14T13:45:29.960Z,102833.89
2019-05-14T13:48:00.211Z,102823.24
2019-05-14T13:50:30.082Z,102825.08
2019-05-14T13:53:06.939Z,102826.44
2019-05-14T13:55:31.478Z,102828.16
2019-05-14T13:58:01.338Z,102817.32
2019-05-14T14:00:31.214Z,102809.58
2019-05-14T14:03:01.606Z,102812.05
2019-05-14T14:05:31.405Z,102811.79
2019-05-14T14:08:01.190Z,102816.53
2019-05-14T14:10:36.606Z,102816.19
2019-05-14T14:13:06.551Z,102800.34
2019-05-14T14:15:35.183Z,102806.02
2019-05-14T14:18:05.006Z,102795.11
2019-05-14T14:20:34.756Z,102792.98
2019-05-14T14:23:21.056Z,102787.59
2019-05-14T14:25:39.297Z,102780.73
2019-05-14T14:28:09.947Z,102770.92
2019-05-14T14:30:39.631Z,102773.45
2019-05-14T14:33:09.365Z,102770.39
2019-05-14T14:35:39.125Z,102760.18
2019-05-14T14:38:08.961Z,102764.83
2019-05-14T14:40:39.549Z,102762.59
2019-05-14T14:43:09.650Z,102774.12
2019-05-14T14:45:45.262Z,102778.13
2019-05-14T14:48:12.608Z,102767.12
2019-05-14T14:50:42.737Z,102760.02
2019-05-14T14:53:12.413Z,102747.17
2019-05-14T14:55:42.215Z,102744.46
2019-05-14T14:58:12.006Z,102747.34
2019-05-14T15:00:41.935Z,102745.41
2019-05-14T15:03:12.077Z,102743.30
2019-05-14T15:05:41.762Z,102737.61
2019-05-14T15:08:11.466Z,102729.62
2019-05-14T15:10:41.217Z,102734.78
2019-05-14T15:13:10.998Z,102728.20
2019-05-14T15:15:40.645Z,102737.00
2019-05-14T15:18:13.610Z,102738.57
2019-05-14T15:20:41.953Z,102725.61
2019-05-14T15:23:11.794Z,102721.50
2019-05-14T15:25:41.537Z,102722.48
2019-05-14T15:28:11.357Z,102721.31
2019-05-14T15:30:41.097Z,102720.59
2019-05-14T15:33:10.796Z,102711.61
2019-05-14T15:35:40.520Z,102711.66
2019-05-14T15:38:11.499Z,102705.38
2019-05-14T15:40:41.377Z,102708.35
2019-05-14T15:43:11.051Z,102709.14
2019-05-14T15:45:40.799Z,102713.43
2019-05-14T15:48:10.458Z,102697.86
2019-05-14T15:50:40.303Z,102701.94
2019-05-14T15:53:11.290Z,102692.59
2019-05-14T15:55:41.218Z,102686.63
2019-05-14T15:58:10.889Z,102680.72
2019-05-14T16:00:40.800Z,102686.39
2019-05-14T16:03:10.888Z,102690.45
2019-05-14T16:05:40.804Z,102701.77
2019-05-14T16:08:12.145Z,102689.91
2019-05-14T16:10:42.041Z,102681.03
2019-05-14T16:13:12.274Z,102686.95
2019-05-14T16:15:42.472Z,102690.46
2019-05-14T16:18:18.451Z,102690.19
2019-05-14T16:20:44.750Z,102679.15
2019-05-14T16:23:14.790Z,102671.10
2019-05-14T16:25:44.730Z,102671.10
2019-05-14T16:28:14.936Z,102671.38
2019-05-14T16:30:44.959Z,102685.91
2019-05-14T16:33:14.952Z,102676.22
2019-05-14T16:35:44.723Z,102677.31
2019-05-14T16:38:14.576Z,102674.91
2019-05-14T16:40:44.305Z,102670.08
2019-05-14T16:43:14.254Z,102677.02
2019-05-14T16:45:44.259Z,102669.50
2019-05-14T16:48:14.376Z,102672.95
2019-05-14T16:50:44.300Z,102677.78
2019-05-14T16:53:14.206Z,102679.97
2019-05-14T16:55:44.654Z,102685.09
2019-05-14T16:58:14.549Z,102684.30
2019-05-14T17:00:44.427Z,102678.94
2019-05-14T17:03:14.282Z,102682.69
2019-05-14T17:05:44.690Z,102676.50
2019-05-14T17:08:14.523Z,102674.33
2019-05-14T17:10:44.442Z,102670.60
2019-05-14T17:13:14.400Z,102674.91
2019-05-14T17:15:44.339Z,102673.54
2019-05-14T17:18:14.452Z,102670.31
2019-05-14T17:20:44.534Z,102663.06
2019-05-14T17:23:14.944Z,102660.36
2019-05-14T17:25:44.924Z,102662.80
2019-05-14T17:28:14.741Z,102664.42
2019-05-14T17:30:44.668Z,102671.14
2019-05-14T17:33:14.470Z,102664.97
2019-05-14T17:35:44.599Z,102668.75
2019-05-14T17:38:14.634Z,102668.49
2019-05-14T17:40:44.609Z,102666.35
2019-05-14T17:43:14.751Z,102662.03
2019-05-14T17:45:45.190Z,102670.39
2019-05-14T17:48:15.192Z,102667.95
2019-05-14T17:50:45.505Z,102662.88
2019-05-14T17:53:15.495Z,102668.23
2019-05-14T17:55:50.078Z,102662.86
2019-05-14T17:58:18.852Z,102667.98
2019-05-14T18:00:49.030Z,102660.98
2019-05-14T18:03:18.937Z,102660.17
2019-05-14T18:05:49.206Z,102656.95
2019-05-14T18:08:18.951Z,102659.38
2019-05-14T18:10:49.748Z,102661.80
2019-05-14T18:13:19.971Z,102657.23
2019-05-14T18:15:50.556Z,102660.70
2019-05-14T18:18:20.649Z,102654.53
2019-05-14T18:20:50.592Z,102657.23
2019-05-14T18:23:20.654Z,102655.89
2019-05-14T18:26:03.801Z,102658.58
2019-05-14T18:28:22.284Z,102653.20
2019-05-14T18:30:52.174Z,102658.02
2019-05-14T18:33:22.130Z,102654.26
2019-05-14T18:35:52.106Z,102660.16
2019-05-14T18:38:22.154Z,102657.21
2019-05-14T18:40:52.140Z,102652.12
2019-05-14T18:43:22.240Z,102657.21
2019-05-14T18:45:52.171Z,102653.98
2019-05-14T18:48:22.232Z,102655.59
2019-05-14T18:50:52.240Z,102660.36
2019-05-14T18:53:21.981Z,102659.32
2019-05-14T18:55:51.905Z,102655.55
2019-05-14T18:58:21.766Z,102653.92
2019-05-14T19:00:51.693Z,102654.47
2019-05-14T19:03:21.592Z,102653.65
2019-05-14T19:05:51.530Z,102648.82
2019-05-14T19:08:21.652Z,102640.47
2019-05-14T19:10:52.195Z,102645.84
2019-05-14T19:13:22.180Z,102643.42
2019-05-14T19:15:52.091Z,102640.45
2019-05-14T19:18:22.190Z,102642.06
2019-05-14T19:20:52.183Z,102633.72
2019-05-14T19:23:22.200Z,102637.47
2019-05-14T19:25:52.090Z,102636.41
2019-05-14T19:28:22.710Z,102632.09
2019-05-14T19:30:52.642Z,102640.38
2019-05-14T19:33:22.406Z,102640.11
2019-05-14T19:35:52.393Z,102638.95
2019-05-14T19:38:22.282Z,102642.20
2019-05-14T19:40:52.308Z,102649.16
2019-05-14T19:43:22.250Z,102637.66
2019-05-14T19:45:52.227Z,102638.17
2019-05-14T19:48:22.586Z,102646.45
2019-05-14T19:50:52.594Z,102644.83
2019-05-14T19:53:22.427Z,102644.03
2019-05-14T19:55:52.419Z,102650.95
2019-05-14T19:58:25.655Z,102650.89
2019-05-14T20:00:55.721Z,102650.39
2019-05-14T20:03:25.743Z,102651.66
2019-05-14T20:05:55.653Z,102651.48
2019-05-14T20:08:25.564Z,102652.50
2019-05-14T20:10:55.584Z,102650.16
2019-05-14T20:13:25.495Z,102645.97
2019-05-14T20:15:55.526Z,102647.52
2019-05-14T20:18:25.401Z,102644.51
2019-05-14T20:20:55.411Z,102634.38
2019-05-14T20:23:25.273Z,102632.88
2019-05-14T20:25:55.190Z,102640.61
2019-05-14T20:28:25.027Z,102634.02
2019-05-14T20:30:54.937Z,102639.70
2019-05-14T20:33:24.984Z,102639.80
2019-05-14T20:35:54.974Z,102640.50
2019-05-14T20:38:24.942Z,102636.27
2019-05-14T20:40:54.935Z,102634.92
2019-05-14T20:43:24.903Z,102632.25
2019-05-14T20:45:54.810Z,102634.77
2019-05-14T20:48:24.731Z,102629.59
2019-05-14T20:50:54.802Z,102627.00
2019-05-14T20:53:25.160Z,102626.77
2019-05-14T20:55:55.140Z,102631.17
2019-05-14T20:58:27.827Z,102631.27
2019-05-14T21:00:57.596Z,102625.88
2019-05-14T21:03:29.082Z,102629.92
2019-05-14T21:05:59.027Z,102623.92
2019-05-14T21:08:29.131Z,102619.48
2019-05-14T21:10:59.148Z,102619.44
2019-05-14T21:13:29.207Z,102618.84
2019-05-14T21:15:59.303Z,102622.85
2019-05-14T21:18:35.213Z,102620.13
2019-05-14T21:21:01.064Z,102619.27
2019-05-14T21:23:31.279Z,102615.00
2019-05-14T21:26:01.420Z,102621.02
2019-05-14T21:28:31.340Z,102618.72
2019-05-14T21:31:01.494Z,102620.09
2019-05-14T21:33:31.568Z,102621.75
2019-05-14T21:36:01.993Z,102623.28
2019-05-14T21:38:31.894Z,102627.92
2019-05-14T21:41:01.928Z,102618.45
2019-05-14T21:43:33.580Z,102625.20
2019-05-14T21:46:03.602Z,102622.53
2019-05-14T21:48:33.570Z,102620.37
2019-05-14T21:51:03.510Z,102618.40
2019-05-14T21:53:33.510Z,102609.77
2019-05-14T21:56:03.605Z,102613.16
2019-05-14T21:58:33.514Z,102607.66
2019-05-14T22:01:04.326Z,102609.40
2019-05-14T22:03:34.306Z,102616.61
2019-05-14T22:06:04.447Z,102610.60
2019-05-14T22:08:34.369Z,102604.48
2019-05-14T22:11:04.396Z,102610.34
2019-05-14T22:13:34.527Z,102610.01
2019-05-14T22:16:04.841Z,102604.31
2019-05-14T22:18:34.968Z,102603.54
2019-05-14T22:21:05.081Z,102603.02
2019-05-14T22:23:38.795Z,102606.66
2019-05-14T22:26:08.174Z,102603.88
2019-05-14T22:28:38.030Z,102600.03
2019-05-14T22:31:09.046Z,102598.15
2019-05-14T22:33:39.234Z,102597.71
2019-05-14T22:36:09.056Z,102596.73
2019-05-14T22:38:39.099Z,102595.86
2019-05-14T22:41:11.580Z,102589.32
2019-05-14T22:43:41.420Z,102588.34
2019-05-14T22:46:11.391Z,102587.91
2019-05-14T22:48:41.308Z,102586.07
2019-05-14T22:51:12.101Z,102589.24
2019-05-14T22:53:42.059Z,102592.16
2019-05-14T22:56:12.388Z,102588.47
2019-05-14T22:58:42.317Z,102584.15
2019-05-14T23:01:15.132Z,102594.47
2019-05-14T23:03:44.146Z,102584.73
2019-05-14T23:06:14.074Z,102591.98
2019-05-14T23:08:43.958Z,102579.77
2019-05-14T23:11:13.909Z,102583.08
2019-05-14T23:13:43.725Z,102582.87
2019-05-14T23:16:13.532Z,102577.99
2019-05-14T23:18:43.353Z,102580.20
2019-05-14T23:21:13.366Z,102578.84
2019-05-14T23:23:43.419Z,102574.55
2019-05-14T23:26:13.432Z,102576.89
2019-05-14T23:28:45.828Z,102585.52
2019-05-14T23:31:15.226Z,102584.11
2019-05-14T23:33:45.345Z,102579.55
2019-05-14T23:36:15.420Z,102575.98
2019-05-14T23:38:45.875Z,102577.76
2019-05-14T23:41:15.859Z,102569.61
2019-05-14T23:43:45.677Z,102570.55
2019-05-14T23:46:15.614Z,102572.72
2019-05-14T23:48:45.623Z,102565.67
2019-05-14T23:51:15.613Z,102558.23
2019-05-14T23:53:45.482Z,102565.08
2019-05-14T23:56:15.455Z,102564.52
2019-05-14T23:58:55.015Z,102560.41
